createdAt,value
2022-10-08T00:00:02.126Z,101419.59
2022-10-08T00:03:21.802Z,101418.11
2022-10-08T00:06:14.654Z,101420.13
2022-10-08T00:09:06.285Z,101413.34
2022-10-08T00:11:54.518Z,101413.70
2022-10-08T00:14:43.587Z,101413.23
2022-10-08T00:17:32.777Z,101407.45
2022-10-08T00:20:22.732Z,101404.31
2022-10-08T00:23:11.896Z,101407.34
2022-10-08T00:26:06.665Z,101399.72
2022-10-08T00:28:56.930Z,101399.27
2022-10-08T00:31:48.290Z,101404.97
2022-10-08T00:34:36.951Z,101395.48
2022-10-08T00:37:26.326Z,101390.52
2022-10-08T00:40:15.484Z,101385.38
2022-10-08T00:43:04.237Z,101376.91
2022-10-08T00:45:52.831Z,101372.92
2022-10-08T00:48:41.802Z,101372.48
2022-10-08T00:51:32.060Z,101370.17
2022-10-08T00:54:21.951Z,101366.87
2022-10-08T00:57:12.220Z,101359.04
2022-10-08T01:00:02.487Z,101367.23
2022-10-08T01:02:52.281Z,101361.42
2022-10-08T01:05:50.505Z,101360.77
2022-10-08T01:08:49.657Z,101362.79
2022-10-08T01:11:47.832Z,101357.02
2022-10-08T01:14:48.673Z,101350.20
2022-10-08T01:17:42.087Z,101353.06
2022-10-08T01:20:43.010Z,101346.24
2022-10-08T01:24:09.003Z,101354.59
2022-10-08T01:27:03.935Z,101354.79
2022-10-08T01:29:54.109Z,101347.97
2022-10-08T01:32:47.750Z,101350.83
2022-10-08T01:35:37.770Z,101352.84
2022-10-08T01:38:29.751Z,101352.20
2022-10-08T01:41:19.346Z,101349.05
2022-10-08T01:44:13.348Z,101349.60
2022-10-08T01:47:07.314Z,101350.97
2022-10-08T01:50:00.705Z,101348.66
2022-10-08T01:52:54.060Z,101346.72
2022-10-08T01:55:45.815Z,101348.89
2022-10-08T01:58:38.563Z,101345.77
2022-10-08T02:01:33.877Z,101341.16
2022-10-08T02:04:33.071Z,101342.17
2022-10-08T02:07:23.551Z,101351.31
2022-10-08T02:10:14.208Z,101341.67
2022-10-08T02:13:03.185Z,101344.17
2022-10-08T02:16:00.064Z,101339.02
2022-10-08T02:18:57.876Z,101344.34
2022-10-08T02:21:48.066Z,101340.87
2022-10-08T02:24:42.701Z,101344.34
2022-10-08T02:27:42.164Z,101339.21
2022-10-08T02:30:36.808Z,101345.53
2022-10-08T02:33:31.146Z,101351.21
2022-10-08T02:36:27.074Z,101348.71
2022-10-08T02:39:18.051Z,101350.72
2022-10-08T02:42:10.554Z,101351.73
2022-10-08T02:45:00.429Z,101338.78
2022-10-08T02:47:56.148Z,101353.27
2022-10-08T02:50:48.902Z,101340.98
2022-10-08T02:53:40.459Z,101341.14
2022-10-08T02:56:35.994Z,101344.80
2022-10-08T02:59:26.184Z,101336.01
2022-10-08T03:02:19.673Z,101342.33
2022-10-08T03:05:13.873Z,101342.49
2022-10-08T03:08:05.270Z,101344.34
2022-10-08T03:10:55.483Z,101341.03
2022-10-08T03:13:48.565Z,101338.53
2022-10-08T03:16:40.852Z,101340.73
2022-10-08T03:19:28.972Z,101340.89
2022-10-08T03:22:18.341Z,101347.56
2022-10-08T03:25:09.561Z,101337.27
2022-10-08T03:27:57.928Z,101340.12
2022-10-08T03:30:47.591Z,101334.96
2022-10-08T03:33:36.639Z,101328.17
2022-10-08T03:36:26.416Z,101336.50
2022-10-08T03:39:15.375Z,101335.20
2022-10-08T03:42:03.902Z,101339.02
2022-10-08T03:44:54.120Z,101332.39
2022-10-08T03:47:42.661Z,101324.92
2022-10-08T03:50:31.418Z,101329.42
2022-10-08T03:53:20.835Z,101333.23
2022-10-08T03:56:12.979Z,101331.58
2022-10-08T03:59:03.263Z,101326.61
2022-10-08T04:01:52.651Z,101332.93
2022-10-08T04:04:41.335Z,101328.45
2022-10-08T04:07:30.092Z,101327.80
2022-10-08T04:10:19.278Z,101332.43
2022-10-08T04:13:08.009Z,101325.61
2022-10-08T04:16:01.942Z,101327.61
2022-10-08T04:18:50.410Z,101327.15
2022-10-08T04:21:39.781Z,101322.98
2022-10-08T04:24:28.358Z,101322.33
2022-10-08T04:27:16.821Z,101322.67
2022-10-08T04:30:09.406Z,101315.89
2022-10-08T04:32:58.930Z,101320.55
2022-10-08T04:35:47.266Z,101315.39
2022-10-08T04:38:36.225Z,101319.05
2022-10-08T04:41:26.414Z,101313.92
2022-10-08T04:44:15.780Z,101311.61
2022-10-08T04:47:04.539Z,101318.73
2022-10-08T04:49:53.292Z,101317.92
2022-10-08T04:52:42.660Z,101316.42
2022-10-08T04:55:31.826Z,101304.98
2022-10-08T04:58:19.967Z,101318.27
2022-10-08T05:01:11.874Z,101319.92
2022-10-08T05:04:01.162Z,101326.23
2022-10-08T05:06:50.951Z,101324.39
2022-10-08T05:09:40.309Z,101324.39
2022-10-08T05:12:28.616Z,101333.02
2022-10-08T05:15:17.407Z,101332.86
2022-10-08T05:18:06.369Z,101332.67
2022-10-08T05:20:55.122Z,101323.55
2022-10-08T05:23:45.155Z,101330.33
2022-10-08T05:29:45.966Z,101328.65
2022-10-08T05:32:34.259Z,101322.83
2022-10-08T05:35:22.653Z,101327.61
2022-10-08T05:38:11.203Z,101328.80
2022-10-08T05:41:11.381Z,101333.42
2022-10-08T05:44:01.615Z,101340.87
2022-10-08T05:46:50.010Z,101337.36
2022-10-08T05:49:38.718Z,101335.00
2022-10-08T05:52:27.675Z,101333.14
2022-10-08T05:55:19.824Z,101337.22
2022-10-08T05:58:09.076Z,101340.67
2022-10-08T06:01:01.642Z,101335.60
2022-10-08T06:03:51.832Z,101343.82
2022-10-08T06:06:42.699Z,101337.08
2022-10-08T06:09:31.876Z,101338.11
2022-10-08T06:12:20.121Z,101345.31
2022-10-08T06:15:11.120Z,101335.34
2022-10-08T06:18:01.620Z,101335.18
2022-10-08T06:20:50.586Z,101340.36
2022-10-08T06:23:40.567Z,101338.69
2022-10-08T06:26:35.361Z,101343.38
2022-10-08T06:29:24.204Z,101341.52
2022-10-08T06:32:12.769Z,101339.02
2022-10-08T06:35:02.297Z,101343.66
2022-10-08T06:37:51.102Z,101338.67
2022-10-08T06:40:40.468Z,101332.25
2022-10-08T06:43:29.633Z,101334.31
2022-10-08T06:46:19.635Z,101332.20
2022-10-08T06:49:10.215Z,101331.11
2022-10-08T06:51:58.357Z,101335.53
2022-10-08T06:54:47.317Z,101331.09
2022-10-08T06:57:36.683Z,101331.62
2022-10-08T07:00:25.440Z,101329.64
2022-10-08T07:03:14.212Z,101327.44
2022-10-08T07:06:04.408Z,101327.31
2022-10-08T07:08:55.393Z,101332.95
2022-10-08T07:11:44.350Z,101330.72
2022-10-08T07:14:32.696Z,101328.09
2022-10-08T07:17:22.271Z,101322.13
2022-10-08T07:20:11.437Z,101326.03
2022-10-08T07:23:00.599Z,101331.81
2022-10-08T07:25:58.687Z,101324.15
2022-10-08T07:28:51.550Z,101327.25
2022-10-08T07:31:40.437Z,101329.28
2022-10-08T07:34:29.757Z,101325.09
2022-10-08T07:37:18.710Z,101320.89
2022-10-08T07:40:11.306Z,101318.52
2022-10-08T07:42:59.909Z,101306.23
2022-10-08T07:45:49.742Z,101311.95
2022-10-08T07:48:39.485Z,101300.67
2022-10-08T07:51:29.656Z,101298.24
2022-10-08T07:54:19.430Z,101298.73
2022-10-08T07:57:07.987Z,101298.99
2022-10-08T07:59:56.740Z,101283.53
2022-10-08T08:02:48.180Z,101288.55
2022-10-08T08:05:36.707Z,101275.33
2022-10-08T08:08:25.053Z,101285.71
2022-10-08T08:11:16.662Z,101283.44
2022-10-08T08:14:05.226Z,101272.03
2022-10-08T08:16:53.819Z,101270.20
2022-10-08T08:19:44.372Z,101277.02
2022-10-08T08:22:33.332Z,101278.02
2022-10-08T08:25:22.705Z,101262.22
2022-10-08T08:28:11.307Z,101270.66
2022-10-08T08:31:10.455Z,101268.56
2022-10-08T08:34:00.985Z,101270.54
2022-10-08T08:36:51.444Z,101264.16
2022-10-08T08:39:40.605Z,101270.73
2022-10-08T08:42:47.545Z,101269.41
2022-10-08T08:45:53.368Z,101262.66
2022-10-08T08:48:44.514Z,101262.59
2022-10-08T08:51:34.133Z,101255.83
2022-10-08T08:54:22.887Z,101260.44
2022-10-08T08:57:22.224Z,101244.78
2022-10-08T09:00:17.407Z,101253.13
2022-10-08T09:03:13.769Z,101249.83
2022-10-08T09:06:09.317Z,101241.97
2022-10-08T09:09:01.304Z,101245.95
2022-10-08T09:11:51.029Z,101230.44
2022-10-08T09:14:43.250Z,101241.98
2022-10-08T09:17:33.827Z,101230.72
2022-10-08T09:20:24.060Z,101232.98
2022-10-08T09:23:16.702Z,101231.14
2022-10-08T09:26:15.886Z,101235.36
2022-10-08T09:29:06.462Z,101230.86
2022-10-08T09:31:55.280Z,101224.47
2022-10-08T09:34:44.237Z,101223.72
2022-10-08T09:37:32.792Z,101222.70
2022-10-08T09:40:23.757Z,101212.67
2022-10-08T09:43:18.655Z,101215.65
2022-10-08T09:46:27.819Z,101205.38
2022-10-08T09:49:32.223Z,101204.03
2022-10-08T09:52:26.485Z,101199.77
2022-10-08T09:55:21.521Z,101199.84
2022-10-08T09:58:18.169Z,101192.92
2022-10-08T10:01:14.198Z,101191.95
2022-10-08T10:04:04.117Z,101178.99
2022-10-08T10:06:55.498Z,101170.67
2022-10-08T10:09:44.486Z,101168.24
2022-10-08T10:12:37.158Z,101161.02
2022-10-08T10:15:33.214Z,101167.30
2022-10-08T10:18:26.659Z,101158.94
2022-10-08T10:21:20.844Z,101157.05
2022-10-08T10:24:30.185Z,101153.02
2022-10-08T10:27:33.109Z,101149.50
2022-10-08T10:30:24.036Z,101143.30
2022-10-08T10:33:19.014Z,101141.16
2022-10-08T10:36:11.979Z,101140.67
2022-10-08T10:39:10.864Z,101133.08
2022-10-08T10:42:10.270Z,101121.14
2022-10-08T10:45:03.769Z,101116.25
2022-10-08T10:47:53.922Z,101109.19
2022-10-08T10:50:50.671Z,101103.50
2022-10-08T10:53:49.272Z,101104.84
2022-10-08T10:56:44.764Z,101093.44
2022-10-08T10:59:44.673Z,101090.45
2022-10-08T11:02:42.613Z,101085.53
2022-10-08T11:05:33.358Z,101085.25
2022-10-08T11:08:33.988Z,101075.44
2022-10-08T11:11:33.207Z,101073.53
2022-10-08T11:14:49.405Z,101067.23
2022-10-08T11:17:53.097Z,101063.42
2022-10-08T11:21:01.916Z,101055.23
2022-10-08T11:24:10.537Z,101051.67
2022-10-08T11:27:11.583Z,101055.67
2022-10-08T11:30:06.102Z,101054.52
2022-10-08T11:32:57.658Z,101046.89
2022-10-08T11:36:02.016Z,101040.89
2022-10-08T11:38:57.441Z,101032.20
2022-10-08T11:41:53.516Z,101032.49
2022-10-08T11:44:43.231Z,101034.95
2022-10-08T11:47:53.900Z,101027.08
2022-10-08T11:50:44.088Z,101021.31
2022-10-08T11:53:32.841Z,101014.73
2022-10-08T11:56:21.597Z,101016.41
2022-10-08T11:59:36.774Z,101013.44
2022-10-08T12:02:29.680Z,100999.55
2022-10-08T12:05:33.080Z,101002.03
2022-10-08T12:08:50.143Z,101000.67
2022-10-08T12:11:55.284Z,101002.00
2022-10-08T12:14:49.505Z,100988.88
2022-10-08T12:17:52.663Z,100994.52
2022-10-08T12:20:43.060Z,100981.81
2022-10-08T12:23:40.414Z,100977.43
2022-10-08T12:26:29.166Z,100977.34
2022-10-08T12:29:49.259Z,100977.53
2022-10-08T12:32:57.262Z,100974.23
2022-10-08T12:35:58.264Z,100964.35
2022-10-08T12:38:56.688Z,100965.66
2022-10-08T12:41:55.870Z,100964.77
2022-10-08T12:44:58.362Z,100965.02
2022-10-08T12:47:55.808Z,100959.33
2022-10-08T12:51:00.858Z,100948.37
2022-10-08T12:53:50.840Z,100954.27
2022-10-08T12:56:40.828Z,100952.37
2022-10-08T12:59:31.753Z,100950.75
2022-10-08T13:02:38.756Z,100942.33
2022-10-08T13:05:30.621Z,100940.66
2022-10-08T13:08:28.615Z,100943.95
2022-10-08T13:11:17.369Z,100942.36
2022-10-08T13:14:05.746Z,100941.05
2022-10-08T13:16:55.700Z,100943.24
2022-10-08T13:19:44.456Z,100934.25
2022-10-08T13:22:33.417Z,100935.34
2022-10-08T13:25:40.570Z,100929.91
2022-10-08T13:28:58.719Z,100922.84
2022-10-08T13:31:37.883Z,100937.55
2022-10-08T13:34:29.554Z,100926.95
2022-10-08T13:37:25.114Z,100929.72
2022-10-08T13:40:22.419Z,100919.67
2022-10-08T13:43:11.704Z,100912.91
2022-10-08T13:46:00.596Z,100915.09
2022-10-08T13:48:49.351Z,100923.00
2022-10-08T13:51:40.976Z,100917.33
2022-10-08T13:54:31.453Z,100917.59
2022-10-08T13:57:19.716Z,100907.81
2022-10-08T14:00:14.308Z,100903.23
2022-10-08T14:03:03.368Z,100900.29
2022-10-08T14:05:52.542Z,100902.52
2022-10-08T14:08:41.084Z,100897.94
2022-10-08T14:11:29.973Z,100898.23
2022-10-08T14:14:18.596Z,100897.46
2022-10-08T14:17:07.348Z,100887.68
2022-10-08T14:19:56.105Z,100886.88
2022-10-08T14:22:45.886Z,100884.48
2022-10-08T14:25:34.434Z,100888.31
2022-10-08T14:28:22.898Z,100888.61
2022-10-08T14:31:13.533Z,100881.86
2022-10-08T14:34:02.749Z,100879.72
2022-10-08T14:36:55.031Z,100882.45
2022-10-08T14:39:45.670Z,100878.67
2022-10-08T14:42:34.955Z,100880.04
2022-10-08T14:45:23.190Z,100877.63
2022-10-08T14:48:12.635Z,100874.90
2022-10-08T14:51:01.222Z,100882.23
2022-10-08T14:53:50.182Z,100870.84
2022-10-08T14:56:38.730Z,100874.37
2022-10-08T14:59:27.287Z,100871.95
2022-10-08T15:02:17.166Z,100869.50
2022-10-08T15:05:09.805Z,100868.44
2022-10-08T15:07:58.875Z,100874.15
2022-10-08T15:10:48.042Z,100870.36
2022-10-08T15:13:36.790Z,100868.45
2022-10-08T15:16:25.618Z,100863.82
2022-10-08T15:19:17.694Z,100870.86
2022-10-08T15:22:08.381Z,100865.69
2022-10-08T15:24:56.932Z,100872.17
2022-10-08T15:27:45.311Z,100871.36
2022-10-08T15:30:34.671Z,100869.70
2022-10-08T15:33:23.448Z,100869.12
2022-10-08T15:36:20.168Z,100875.80
2022-10-08T15:39:11.654Z,100872.78
2022-10-08T15:42:00.321Z,100881.11
2022-10-08T15:44:49.894Z,100887.81
2022-10-08T15:47:39.058Z,100876.90
2022-10-08T15:50:27.225Z,100871.67
2022-10-08T15:53:15.749Z,100878.84
2022-10-08T15:56:05.753Z,100878.45
2022-10-08T15:58:54.488Z,100877.81
2022-10-08T16:01:43.858Z,100883.41
2022-10-08T16:04:32.631Z,100882.98
2022-10-08T16:07:21.574Z,100888.80
2022-10-08T16:10:10.903Z,100881.33
2022-10-08T16:12:59.470Z,100890.63
2022-10-08T16:15:48.886Z,100889.11
2022-10-08T16:18:38.437Z,100898.42
2022-10-08T16:21:28.669Z,100898.78
2022-10-08T16:24:16.969Z,100893.48
2022-10-08T16:27:05.931Z,100898.17
2022-10-08T16:29:54.276Z,100902.62
2022-10-08T16:32:45.369Z,100894.83
2022-10-08T16:35:37.126Z,100897.60
2022-10-08T16:38:26.277Z,100898.76
2022-10-08T16:41:17.825Z,100896.38
2022-10-08T16:44:12.395Z,100898.55
2022-10-08T16:47:01.129Z,100900.49
2022-10-08T16:49:50.103Z,100900.30
2022-10-08T16:52:39.542Z,100908.42
2022-10-08T16:55:28.847Z,100903.06
2022-10-08T16:58:17.112Z,100911.99
2022-10-08T17:01:07.847Z,100924.44
2022-10-08T17:03:57.739Z,100919.06
2022-10-08T17:06:47.515Z,100920.38
2022-10-08T17:09:37.328Z,100920.62
2022-10-08T17:12:26.296Z,100924.13
2022-10-08T17:15:15.659Z,100925.96
2022-10-08T17:18:05.029Z,100931.69
2022-10-08T17:20:56.388Z,100920.69
2022-10-08T17:23:46.149Z,100925.81
2022-10-08T17:26:35.596Z,100931.52
2022-10-08T17:29:24.349Z,100925.89
2022-10-08T17:32:12.696Z,100931.80
2022-10-08T17:35:01.656Z,100930.49
2022-10-08T17:37:50.826Z,100932.91
2022-10-08T17:40:39.200Z,100936.95
2022-10-08T17:43:27.918Z,100934.58
2022-10-08T17:46:18.367Z,100939.43
2022-10-08T17:49:07.070Z,100944.27
2022-10-08T17:51:55.420Z,100942.13
2022-10-08T17:54:43.964Z,100949.64
2022-10-08T17:57:32.925Z,100946.66
2022-10-08T18:00:22.497Z,100946.59
2022-10-08T18:03:12.132Z,100951.65
2022-10-08T18:06:01.237Z,100952.73
2022-10-08T18:08:55.595Z,100942.09
2022-10-08T18:11:45.265Z,100948.53
2022-10-08T18:14:34.053Z,100945.93
2022-10-08T18:17:22.811Z,100950.09
2022-10-08T18:20:12.177Z,100951.77
2022-10-08T18:23:00.935Z,100952.61
2022-10-08T18:25:53.734Z,100953.48
2022-10-08T18:28:42.570Z,100950.23
2022-10-08T18:31:32.787Z,100954.62
2022-10-08T18:34:21.896Z,100955.05
2022-10-08T18:37:10.439Z,100957.56
2022-10-08T18:39:58.999Z,100957.16
2022-10-08T18:42:48.214Z,100955.74
2022-10-08T18:45:38.695Z,100954.10
2022-10-08T18:48:28.537Z,100958.02
2022-10-08T18:51:20.801Z,100951.02
2022-10-08T18:54:09.537Z,100961.97
2022-10-08T18:56:59.919Z,100957.64
2022-10-08T18:59:50.318Z,100965.87
2022-10-08T19:02:38.978Z,100959.72
2022-10-08T19:05:28.673Z,100960.52
2022-10-08T19:08:18.011Z,100963.20
2022-10-08T19:11:12.989Z,100963.20
2022-10-08T19:14:02.489Z,100974.95
2022-10-08T19:16:52.064Z,100969.59
2022-10-08T19:19:40.405Z,100967.95
2022-10-08T19:22:28.956Z,100971.46
2022-10-08T19:25:18.325Z,100969.59
2022-10-08T19:28:06.947Z,100965.87
2022-10-08T19:30:55.446Z,100966.72
2022-10-08T19:33:47.867Z,100967.52
2022-10-08T19:36:36.416Z,100975.36
2022-10-08T19:39:26.885Z,100973.71
2022-10-08T19:42:15.792Z,100967.09
2022-10-08T19:45:05.958Z,100972.45
2022-10-08T19:47:55.120Z,100976.77
2022-10-08T19:50:43.469Z,100983.77
2022-10-08T19:53:33.043Z,100976.34
2022-10-08T19:56:22.990Z,100983.34
2022-10-08T19:59:12.806Z,100979.63
2022-10-08T20:02:01.227Z,100977.78
2022-10-08T20:04:50.312Z,100974.88
2022-10-08T20:07:40.507Z,100977.55
2022-10-08T20:10:29.260Z,100971.16
2022-10-08T20:13:18.472Z,100971.99
2022-10-08T20:16:08.584Z,100971.77
2022-10-08T20:18:59.209Z,100972.59
2022-10-08T20:21:50.835Z,100978.76
2022-10-08T20:24:39.194Z,100965.36
2022-10-08T20:27:27.933Z,100968.27
2022-10-08T20:30:17.507Z,100972.59
2022-10-08T20:33:06.263Z,100971.56
2022-10-08T20:35:55.222Z,100969.69
2022-10-08T20:38:44.182Z,100968.45
2022-10-08T20:41:33.345Z,100975.65
2022-10-08T20:44:23.121Z,100978.33
2022-10-08T20:47:11.472Z,100975.65
2022-10-08T20:50:00.429Z,100970.29
2022-10-08T20:52:51.039Z,100971.12
2022-10-08T20:55:40.603Z,100961.22
2022-10-08T20:58:29.263Z,100967.41
2022-10-08T21:01:20.067Z,100970.89
2022-10-08T21:04:09.534Z,100970.89
2022-10-08T21:06:58.697Z,100973.58
2022-10-08T21:09:51.931Z,100966.38
2022-10-08T21:12:40.096Z,100963.46
2022-10-08T21:15:29.055Z,100964.50
2022-10-08T21:18:18.427Z,100954.62
2022-10-08T21:21:08.806Z,100954.62
2022-10-08T21:23:57.782Z,100954.62
2022-10-08T21:26:46.541Z,100946.34
2022-10-08T21:29:36.421Z,100946.34
2022-10-08T21:32:24.864Z,100947.39
2022-10-08T21:35:13.490Z,100943.06
2022-10-08T21:38:01.963Z,100940.19
2022-10-08T21:40:56.660Z,100938.55
2022-10-08T21:43:47.279Z,100936.67
2022-10-08T21:46:38.469Z,100936.06
2022-10-08T21:49:27.838Z,100924.55
2022-10-08T21:52:17.209Z,100927.42
2022-10-08T21:55:08.660Z,100921.86
2022-10-08T21:57:57.588Z,100912.98
2022-10-08T22:00:46.403Z,100907.63
2022-10-08T22:03:35.301Z,100905.99
2022-10-08T22:06:27.741Z,100905.19
2022-10-08T22:09:18.549Z,100905.39
2022-10-08T22:12:08.322Z,100899.66
2022-10-08T22:14:57.075Z,100902.34
2022-10-08T22:17:46.037Z,100894.50
2022-10-08T22:20:37.047Z,100892.06
2022-10-08T22:23:26.456Z,100886.91
2022-10-08T22:26:17.314Z,100893.53
2022-10-08T22:29:07.202Z,100887.77
2022-10-08T22:31:55.816Z,100890.11
2022-10-08T22:34:44.914Z,100884.81
2022-10-08T22:37:33.673Z,100879.66
2022-10-08T22:40:23.654Z,100873.93
2022-10-08T22:43:12.410Z,100877.03
2022-10-08T22:46:05.362Z,100871.51
2022-10-08T22:48:58.935Z,100880.77
2022-10-08T22:51:47.486Z,100867.22
2022-10-08T22:54:36.032Z,100872.62
2022-10-08T22:57:25.000Z,100865.45
2022-10-08T23:00:16.604Z,100868.38
2022-10-08T23:03:05.641Z,100863.87
2022-10-08T23:06:07.934Z,100862.05
2022-10-08T23:08:58.446Z,100852.17
2022-10-08T23:11:46.998Z,100859.17
2022-10-08T23:14:36.161Z,100863.73
2022-10-08T23:17:24.921Z,100858.84
2022-10-08T23:20:14.085Z,100866.06
2022-10-08T23:23:02.427Z,100863.20
2022-10-08T23:25:55.372Z,100865.91
2022-10-08T23:28:44.509Z,100858.72
2022-10-08T23:31:36.486Z,100857.72
2022-10-08T23:34:25.430Z,100868.41
2022-10-08T23:37:14.187Z,100871.09
2022-10-08T23:40:03.145Z,100861.02
2022-10-08T23:42:53.335Z,100876.03
2022-10-08T23:45:41.533Z,100873.16
2022-10-08T23:48:30.227Z,100867.61
2022-10-08T23:51:20.176Z,100867.59
2022-10-08T23:54:09.381Z,100863.91
2022-10-08T23:56:57.941Z,100872.73
2022-10-08T23:59:47.089Z,100871.88
